KMRN

Foothills Regional Airport

Morganton, North Carolina, USA
METAR KMRN 211600Z AUTO 00000KT 10SM CLR M03/M21 A3045 RMK AO2 T10351211
Observed Flight Rules
Jan-21 @ 16:00 UTC (41 minutes ago) Visual Flight Rules
Visibility Clouds
10 miles
  • Clear skies
Temperatures Readings
Current -4°C / 25°F
Dewpoint -21°C / -6°F
Humidity 26%
Altimeter 30.45" Hg
Pressure 1031.11 hPa
Elevation 387
METAR KMRN 211600Z AUTO 00000KT 10SM CLR M03/M21 A3045 RMK AO2 T10351211
Observed Flight Rules
Jan-21 @ 16:00 UTC
(41 minutes ago)
VFR
Clouds
  • Clear skies
Temperature Dewpoint
-4°C / 25°F -21°C / -6°F
Humidity Altimeter Pressure
26% 30.45" Hg 1031.11 hPa